Time;durP1;ratioP1;P1;durP2;ratioP2;P2;SDS_P1;SDS_P2;PMS_P1;PMS_P2;Temp;Humidity;BMP_temperature;BMP_pressure;BME280_temperature;BME280_humidity;BME280_pressure;Samples;Min_cycle;Max_cycle;Signal;HPM_P1;HPM_P2
2023/12/03 00:01:45;;;;;;;20.87;19.27;;;;;;;;;;5013866;28;20476;-43
2023/12/03 00:04:13;;;;;;;21.97;20.37;;;;;;;;;;5014536;28;20439;-43
2023/12/03 00:06:42;;;;;;;21.00;19.40;;;;;;;;;;5022493;28;20440;-41
2023/12/03 00:09:10;;;;;;;22.20;20.50;;;;;;;;;;5022176;28;20924;-41
2023/12/03 00:11:38;;;;;;;22.80;21.10;;;;;;;;;;5014037;28;20914;-42
2023/12/03 00:14:06;;;;;;;22.20;20.20;;;;;;;;;;5013970;28;20520;-41
2023/12/03 00:16:33;;;;;;;22.63;20.67;;;;;;;;;;5014319;28;20865;-42
2023/12/03 00:19:01;;;;;;;21.30;19.57;;;;;;;;;;5022261;28;20716;-43
2023/12/03 00:21:28;;;;;;;20.87;19.30;;;;;;;;;;5021356;28;20469;-41
2023/12/03 00:23:57;;;;;;;21.90;20.40;;;;;;;;;;5030252;28;20595;-41
2023/12/03 00:26:25;;;;;;;22.27;20.40;;;;;;;;;;5014378;28;21129;-42
2023/12/03 00:28:52;;;;;;;21.87;20.37;;;;;;;;;;5015165;28;20524;-42
2023/12/03 00:31:20;;;;;;;22.20;20.53;;;;;;;;;;5025253;28;20464;-42
2023/12/03 00:33:48;;;;;;;24.07;22.33;;;;;;;;;;5033462;28;20523;-41
2023/12/03 00:36:16;;;;;;;22.27;20.43;;;;;;;;;;5021423;28;20520;-42
2023/12/03 00:38:43;;;;;;;22.73;20.93;;;;;;;;;;5014033;28;20515;-42
2023/12/03 00:41:11;;;;;;;23.00;21.10;;;;;;;;;;5013530;28;20500;-42
2023/12/03 00:43:39;;;;;;;21.80;20.40;;;;;;;;;;5013317;28;20468;-42
2023/12/03 00:46:06;;;;;;;22.30;20.80;;;;;;;;;;5013502;28;20447;-42
2023/12/03 00:48:34;;;;;;;21.60;19.90;;;;;;;;;;5020672;28;20551;-42
2023/12/03 00:51:02;;;;;;;21.40;19.87;;;;;;;;;;5016683;28;20473;-43
2023/12/03 00:53:29;;;;;;;21.60;19.87;;;;;;;;;;5027709;28;20468;-42
2023/12/03 00:55:57;;;;;;;21.03;19.37;;;;;;;;;;5013670;28;20524;-41
2023/12/03 00:58:26;;;;;;;22.17;20.50;;;;;;;;;;5014334;28;20531;-42
2023/12/03 01:00:53;;;;;;;22.33;20.50;;;;;;;;;;5013692;28;20560;-41
2023/12/03 01:03:21;;;;;;;22.40;20.60;;;;;;;;;;5013618;28;20531;-44
2023/12/03 01:05:48;;;;;;;22.50;20.70;;;;;;;;;;5013531;28;20484;-43
2023/12/03 01:08:16;;;;;;;22.40;20.90;;;;;;;;;;5026008;28;20927;-42
2023/12/03 01:10:44;;;;;;;22.27;20.63;;;;;;;;;;5025063;28;20966;-43
2023/12/03 01:13:11;;;;;;;22.67;20.83;;;;;;;;;;5013352;28;20525;-42
2023/12/03 01:15:40;;;;;;;20.20;18.83;;;;;;;;;;5013921;28;20844;-43
2023/12/03 01:18:10;;;;;;;21.20;19.57;;;;;;;;;;5013301;28;20449;-45
2023/12/03 01:20:37;;;;;;;20.10;18.50;;;;;;;;;;5020844;28;20983;-41
2023/12/03 01:23:05;;;;;;;19.23;18.03;;;;;;;;;;5060167;23;20623;-39
2023/12/03 01:25:32;;;;;;;21.10;19.60;;;;;;;;;;5073970;28;20537;-45
2023/12/03 01:28:00;;;;;;;21.27;19.87;;;;;;;;;;5073319;28;20441;-38
2023/12/03 01:30:28;;;;;;;18.90;17.70;;;;;;;;;;5072914;28;20470;-44
2023/12/03 01:32:57;;;;;;;19.97;18.77;;;;;;;;;;5072694;28;20458;-39
2023/12/03 01:35:24;;;;;;;19.63;18.20;;;;;;;;;;5073744;28;20508;-39
2023/12/03 01:37:52;;;;;;;20.47;18.87;;;;;;;;;;5073628;28;20525;-38
2023/12/03 01:40:20;;;;;;;18.93;17.83;;;;;;;;;;5072691;28;20458;-39
2023/12/03 01:42:47;;;;;;;17.90;16.90;;;;;;;;;;5072754;28;21000;-39
2023/12/03 01:45:15;;;;;;;19.67;18.27;;;;;;;;;;5073286;28;20484;-38
2023/12/03 01:47:43;;;;;;;19.47;17.97;;;;;;;;;;5072651;28;20531;-42
2023/12/03 01:50:12;;;;;;;20.40;18.80;;;;;;;;;;5072371;28;20467;-40
2023/12/03 01:52:40;;;;;;;21.83;19.97;;;;;;;;;;5073011;28;20465;-39
2023/12/03 01:55:08;;;;;;;22.63;20.77;;;;;;;;;;5071814;28;20913;-37
2023/12/03 01:57:36;;;;;;;24.53;21.97;;;;;;;;;;5072931;28;20529;-40
2023/12/03 02:00:05;;;;;;;22.20;20.03;;;;;;;;;;5072282;28;20980;-39
2023/12/03 02:02:32;;;;;;;21.20;19.50;;;;;;;;;;5073482;28;20478;-42
2023/12/03 02:05:01;;;;;;;21.37;19.63;;;;;;;;;;5064899;28;20446;-38
2023/12/03 02:07:30;;;;;;;19.53;18.00;;;;;;;;;;5073477;28;20438;-38
2023/12/03 02:09:59;;;;;;;21.53;19.73;;;;;;;;;;5072995;28;20465;-39
2023/12/03 02:12:27;;;;;;;21.83;20.13;;;;;;;;;;5073585;28;20825;-39
2023/12/03 02:14:55;;;;;;;21.23;19.43;;;;;;;;;;5073030;28;20979;-40
2023/12/03 02:17:22;;;;;;;19.20;17.57;;;;;;;;;;5073362;28;20478;-38
2023/12/03 02:19:50;;;;;;;21.33;18.57;;;;;;;;;;5071420;28;20530;-39
2023/12/03 02:22:18;;;;;;;22.50;20.70;;;;;;;;;;5064801;28;20462;-38
2023/12/03 02:24:46;;;;;;;22.77;20.80;;;;;;;;;;5073339;28;20526;-38
2023/12/03 02:27:14;;;;;;;22.30;20.33;;;;;;;;;;5072934;28;20430;-38
2023/12/03 02:29:42;;;;;;;20.53;18.60;;;;;;;;;;5072205;28;20461;-40
2023/12/03 02:32:09;;;;;;;20.60;18.93;;;;;;;;;;5072721;28;20849;-38
2023/12/03 02:34:37;;;;;;;20.97;19.33;;;;;;;;;;5072640;28;20445;-39
2023/12/03 02:37:04;;;;;;;19.77;18.27;;;;;;;;;;5072536;28;20442;-38
2023/12/03 02:39:32;;;;;;;21.67;19.87;;;;;;;;;;5072514;28;20534;-38
2023/12/03 02:42:01;;;;;;;19.37;18.03;;;;;;;;;;5072163;28;20980;-39
2023/12/03 02:44:28;;;;;;;20.50;19.13;;;;;;;;;;5071914;28;21079;-38
2023/12/03 02:46:56;;;;;;;19.73;18.07;;;;;;;;;;5071797;28;20438;-38
2023/12/03 02:49:24;;;;;;;19.23;17.73;;;;;;;;;;5072150;28;20503;-41
2023/12/03 02:51:51;;;;;;;20.00;18.30;;;;;;;;;;5072237;28;20497;-40
2023/12/03 02:54:19;;;;;;;21.60;19.70;;;;;;;;;;5072097;28;20445;-38
2023/12/03 02:56:47;;;;;;;21.47;19.63;;;;;;;;;;5072231;28;20434;-39
2023/12/03 02:59:16;;;;;;;20.97;19.27;;;;;;;;;;5071721;28;20918;-38
2023/12/03 03:01:43;;;;;;;22.63;20.93;;;;;;;;;;5071298;28;20462;-41
2023/12/03 03:04:11;;;;;;;23.17;21.37;;;;;;;;;;5071343;28;20481;-39
2023/12/03 03:06:39;;;;;;;23.60;22.00;;;;;;;;;;5071644;28;20430;-38
2023/12/03 03:09:06;;;;;;;26.20;24.27;;;;;;;;;;5071398;28;20943;-38
2023/12/03 03:11:34;;;;;;;25.00;23.10;;;;;;;;;;5071168;28;20977;-38
2023/12/03 03:14:02;;;;;;;29.03;26.17;;;;;;;;;;5070862;28;20458;-39
2023/12/03 03:16:31;;;;;;;23.57;21.97;;;;;;;;;;5071834;28;20435;-41
2023/12/03 03:18:58;;;;;;;25.83;23.57;;;;;;;;;;5071008;28;20534;-39
2023/12/03 03:21:26;;;;;;;25.57;23.07;;;;;;;;;;5073084;28;20466;-39
2023/12/03 03:23:54;;;;;;;26.67;24.37;;;;;;;;;;5070867;28;20502;-38
2023/12/03 03:26:21;;;;;;;24.83;22.83;;;;;;;;;;5063460;28;20534;-38
2023/12/03 03:28:49;;;;;;;25.47;23.00;;;;;;;;;;5071269;28;20510;-38
2023/12/03 03:31:16;;;;;;;25.33;22.90;;;;;;;;;;5070940;28;20462;-38
2023/12/03 03:33:45;;;;;;;24.10;22.17;;;;;;;;;;5071394;28;20493;-38
2023/12/03 03:36:13;;;;;;;25.20;22.87;;;;;;;;;;5071378;28;20446;-38
2023/12/03 03:38:41;;;;;;;24.37;22.27;;;;;;;;;;5071548;28;20434;-39
2023/12/03 03:41:08;;;;;;;24.77;22.83;;;;;;;;;;5070740;28;20486;-39
2023/12/03 03:43:36;;;;;;;24.47;22.40;;;;;;;;;;5071194;28;20993;-38
2023/12/03 03:46:04;;;;;;;24.07;22.20;;;;;;;;;;5071694;28;21006;-38
2023/12/03 03:48:32;;;;;;;24.50;22.53;;;;;;;;;;5071638;28;20474;-39
2023/12/03 03:51:01;;;;;;;23.80;22.07;;;;;;;;;;5071000;28;20541;-38
2023/12/03 03:53:28;;;;;;;27.10;24.73;;;;;;;;;;5071363;28;20906;-38
2023/12/03 03:55:56;;;;;;;23.40;21.40;;;;;;;;;;5071123;28;20442;-39
2023/12/03 03:58:23;;;;;;;25.27;23.20;;;;;;;;;;5071691;28;20439;-40
2023/12/03 04:00:51;;;;;;;24.87;22.97;;;;;;;;;;5070909;28;20535;-38
2023/12/03 04:03:19;;;;;;;23.73;21.93;;;;;;;;;;5070797;28;20568;-39
2023/12/03 04:05:47;;;;;;;24.73;22.90;;;;;;;;;;5071114;28;21040;-42
2023/12/03 04:08:15;;;;;;;23.33;21.53;;;;;;;;;;5070893;28;20469;-39
2023/12/03 04:10:43;;;;;;;23.23;21.63;;;;;;;;;;5070824;28;20462;-39
2023/12/03 04:13:11;;;;;;;26.93;24.73;;;;;;;;;;5068718;28;20515;-38
2023/12/03 04:15:38;;;;;;;24.13;22.53;;;;;;;;;;5071070;28;20434;-38
2023/12/03 04:18:06;;;;;;;24.80;23.20;;;;;;;;;;5072579;28;20446;-38
2023/12/03 04:20:34;;;;;;;25.30;23.47;;;;;;;;;;5072095;28;20489;-38
2023/12/03 04:23:02;;;;;;;26.67;24.70;;;;;;;;;;5074051;28;20476;-41
2023/12/03 04:25:31;;;;;;;23.90;22.30;;;;;;;;;;5074735;28;20474;-39
2023/12/03 04:27:58;;;;;;;22.93;21.63;;;;;;;;;;5074383;28;20529;-40
2023/12/03 04:30:26;;;;;;;22.57;21.27;;;;;;;;;;5073932;28;20469;-38
2023/12/03 04:32:53;;;;;;;24.20;22.60;;;;;;;;;;5073933;28;20882;-40
2023/12/03 04:35:21;;;;;;;25.43;23.47;;;;;;;;;;5073833;28;20461;-38
2023/12/03 04:37:49;;;;;;;25.10;23.40;;;;;;;;;;5074417;28;20525;-38
2023/12/03 04:40:16;;;;;;;22.67;21.43;;;;;;;;;;5073399;28;20488;-38
2023/12/03 04:42:45;;;;;;;25.17;23.40;;;;;;;;;;5073983;28;20549;-39
2023/12/03 04:45:13;;;;;;;24.47;22.87;;;;;;;;;;5073870;28;20470;-40
2023/12/03 04:47:40;;;;;;;24.03;22.57;;;;;;;;;;5073990;28;21015;-38
2023/12/03 04:50:08;;;;;;;26.77;24.83;;;;;;;;;;5073411;28;20501;-41
2023/12/03 04:52:36;;;;;;;26.73;24.73;;;;;;;;;;5073973;28;20454;-38
2023/12/03 04:55:03;;;;;;;25.47;23.97;;;;;;;;;;5073968;28;20806;-38
2023/12/03 04:57:31;;;;;;;25.00;23.50;;;;;;;;;;5074136;28;20450;-45
2023/12/03 05:00:00;;;;;;;24.50;22.90;;;;;;;;;;5073668;28;20541;-38
2023/12/03 05:02:28;;;;;;;26.67;24.77;;;;;;;;;;5073799;28;20455;-38
2023/12/03 05:04:55;;;;;;;28.47;26.30;;;;;;;;;;5073520;28;20984;-39
2023/12/03 05:07:23;;;;;;;27.33;25.40;;;;;;;;;;5074034;28;20804;-38
2023/12/03 05:09:51;;;;;;;26.80;24.87;;;;;;;;;;5073321;28;20882;-38
2023/12/03 05:12:18;;;;;;;26.00;24.20;;;;;;;;;;5073689;28;20466;-41
2023/12/03 05:14:46;;;;;;;27.03;25.23;;;;;;;;;;5073064;28;20441;-38
2023/12/03 05:17:15;;;;;;;26.17;24.10;;;;;;;;;;5073527;28;20876;-38
2023/12/03 05:19:43;;;;;;;25.10;23.60;;;;;;;;;;5073130;28;20450;-39
2023/12/03 05:22:12;;;;;;;26.43;24.70;;;;;;;;;;5071232;28;20885;-39
2023/12/03 05:24:39;;;;;;;24.20;22.57;;;;;;;;;;5073188;28;20466;-39
2023/12/03 05:27:07;;;;;;;26.90;25.00;;;;;;;;;;5073064;28;20446;-40
2023/12/03 05:29:35;;;;;;;26.83;24.80;;;;;;;;;;5071454;28;20473;-42
2023/12/03 05:32:03;;;;;;;27.17;25.17;;;;;;;;;;5072898;28;20454;-39
2023/12/03 05:34:32;;;;;;;26.70;24.70;;;;;;;;;;5072742;28;20475;-40
2023/12/03 05:36:59;;;;;;;29.50;27.07;;;;;;;;;;5072730;28;20880;-39
2023/12/03 05:39:27;;;;;;;29.20;26.70;;;;;;;;;;5064198;28;20438;-41
2023/12/03 05:41:54;;;;;;;29.93;27.70;;;;;;;;;;5072735;28;20438;-39
2023/12/03 05:44:22;;;;;;;27.70;25.40;;;;;;;;;;5072170;28;20470;-38
2023/12/03 05:46:49;;;;;;;27.83;25.77;;;;;;;;;;5072811;28;20439;-38
2023/12/03 05:49:17;;;;;;;29.00;26.60;;;;;;;;;;5072650;28;20829;-43
2023/12/03 05:51:46;;;;;;;28.60;26.10;;;;;;;;;;5072104;28;20828;-39
2023/12/03 05:54:14;;;;;;;28.37;26.20;;;;;;;;;;5072125;28;20660;-38
2023/12/03 05:56:41;;;;;;;31.57;29.03;;;;;;;;;;5072597;28;20434;-39
2023/12/03 05:59:12;;;;;;;32.03;28.73;;;;;;;;;;5072297;28;20484;-41
2023/12/03 06:01:40;;;;;;;30.43;28.00;;;;;;;;;;5071813;28;20984;-38
2023/12/03 06:04:08;;;;;;;32.00;29.00;;;;;;;;;;5071866;28;21101;-38
2023/12/03 06:06:35;;;;;;;32.47;29.67;;;;;;;;;;5072530;28;20439;-39
2023/12/03 06:09:05;;;;;;;31.07;28.37;;;;;;;;;;5072264;28;20500;-38
2023/12/03 06:11:33;;;;;;;32.50;29.50;;;;;;;;;;5064187;28;20822;-38
2023/12/03 06:14:00;;;;;;;30.10;27.47;;;;;;;;;;5072202;28;20454;-38
2023/12/03 06:16:28;;;;;;;29.90;27.30;;;;;;;;;;5072064;28;20430;-39
2023/12/03 06:18:56;;;;;;;31.97;29.30;;;;;;;;;;5072227;28;20488;-38
2023/12/03 06:21:24;;;;;;;31.00;28.40;;;;;;;;;;5068724;28;20466;-39
2023/12/03 06:23:52;;;;;;;30.10;27.50;;;;;;;;;;5071879;28;20462;-41
2023/12/03 06:26:21;;;;;;;29.80;27.53;;;;;;;;;;5071912;28;20476;-38
2023/12/03 06:28:49;;;;;;;31.67;28.77;;;;;;;;;;5071987;28;20491;-39
2023/12/03 06:31:16;;;;;;;33.00;29.10;;;;;;;;;;5071566;28;20554;-38
2023/12/03 06:33:46;;;;;;;32.70;30.03;;;;;;;;;;5072319;28;20458;-38
2023/12/03 06:36:14;;;;;;;31.23;28.23;;;;;;;;;;5071650;28;20439;-37
2023/12/03 06:38:42;;;;;;;32.07;28.83;;;;;;;;;;5072391;28;20480;-38
2023/12/03 06:41:09;;;;;;;38.00;32.70;;;;;;;;;;5066521;28;20454;-38
2023/12/03 06:43:38;;;;;;;31.30;28.03;;;;;;;;;;5072006;28;20553;-40
2023/12/03 06:46:06;;;;;;;35.17;31.63;;;;;;;;;;5071910;28;20561;-39
2023/12/03 06:48:34;;;;;;;33.40;30.50;;;;;;;;;;5072079;28;20438;-38
2023/12/03 06:51:02;;;;;;;32.80;29.70;;;;;;;;;;5071251;28;20464;-39
2023/12/03 06:53:29;;;;;;;33.23;29.97;;;;;;;;;;5071882;28;20541;-42
2023/12/03 06:55:57;;;;;;;31.93;29.00;;;;;;;;;;5070533;28;21029;-38
2023/12/03 06:58:24;;;;;;;33.93;30.33;;;;;;;;;;5071231;28;20434;-38
2023/12/03 07:00:54;;;;;;;33.23;29.83;;;;;;;;;;5071569;28;20486;-38
2023/12/03 07:03:21;;;;;;;30.10;27.60;;;;;;;;;;5065200;28;20459;-39
2023/12/03 07:05:49;;;;;;;32.00;29.20;;;;;;;;;;5071675;28;20466;-38
2023/12/03 07:08:17;;;;;;;33.23;29.93;;;;;;;;;;5071655;28;20442;-39
2023/12/03 07:10:44;;;;;;;32.73;29.67;;;;;;;;;;5071161;28;20861;-41
2023/12/03 07:13:12;;;;;;;33.30;30.10;;;;;;;;;;5071080;28;20508;-40
2023/12/03 07:15:42;;;;;;;32.70;29.30;;;;;;;;;;5071615;28;20809;-39
2023/12/03 07:18:11;;;;;;;33.83;30.50;;;;;;;;;;5071554;28;20928;-39
2023/12/03 07:20:39;;;;;;;31.40;28.43;;;;;;;;;;5067642;28;20462;-39
2023/12/03 07:23:07;;;;;;;32.37;28.93;;;;;;;;;;5071317;28;20900;-38
2023/12/03 07:25:34;;;;;;;33.77;30.27;;;;;;;;;;5063499;28;20470;-39
2023/12/03 07:28:02;;;;;;;31.70;28.80;;;;;;;;;;5071962;28;20529;-38
2023/12/03 07:30:30;;;;;;;35.97;29.60;;;;;;;;;;5071050;28;20557;-38
2023/12/03 07:32:58;;;;;;;32.17;29.10;;;;;;;;;;5071759;28;20794;-41
2023/12/03 07:35:27;;;;;;;31.80;29.10;;;;;;;;;;5071726;28;20474;-41
2023/12/03 07:37:55;;;;;;;29.33;26.63;;;;;;;;;;5070322;28;20476;-38
2023/12/03 07:40:22;;;;;;;31.57;28.80;;;;;;;;;;5070929;28;20983;-38
2023/12/03 07:42:50;;;;;;;29.33;26.33;;;;;;;;;;5071034;28;20459;-39
2023/12/03 07:45:17;;;;;;;30.13;27.03;;;;;;;;;;5070782;28;20500;-38
2023/12/03 07:47:48;;;;;;;28.93;26.47;;;;;;;;;;5088732;22;20510;-43
2023/12/03 07:50:15;;;;;;;32.13;29.30;;;;;;;;;;5050002;28;20470;-42
2023/12/03 07:52:44;;;;;;;31.33;28.57;;;;;;;;;;5052002;28;21104;-41
2023/12/03 07:55:12;;;;;;;31.00;28.10;;;;;;;;;;5054610;28;20435;-42
2023/12/03 07:57:40;;;;;;;28.97;26.50;;;;;;;;;;5054628;28;20490;-41
2023/12/03 08:00:08;;;;;;;29.23;26.90;;;;;;;;;;5054887;28;20482;-42
2023/12/03 08:02:36;;;;;;;28.53;25.80;;;;;;;;;;5046349;28;20501;-41
2023/12/03 08:05:04;;;;;;;27.00;24.97;;;;;;;;;;5054754;28;20972;-41
2023/12/03 08:07:31;;;;;;;26.67;24.63;;;;;;;;;;5054085;28;20475;-48
2023/12/03 08:10:01;;;;;;;28.47;26.10;;;;;;;;;;5053623;28;20462;-41
2023/12/03 08:12:29;;;;;;;30.87;27.90;;;;;;;;;;5054524;28;20439;-41
2023/12/03 08:14:56;;;;;;;32.27;27.47;;;;;;;;;;5054552;28;20790;-41
2023/12/03 08:17:24;;;;;;;37.33;28.30;;;;;;;;;;5047851;28;20455;-42
2023/12/03 08:19:51;;;;;;;33.03;26.80;;;;;;;;;;5054613;28;20870;-40
2023/12/03 08:22:19;;;;;;;39.03;27.47;;;;;;;;;;5062562;28;20864;-41
2023/12/03 08:24:47;;;;;;;34.13;27.07;;;;;;;;;;5056930;28;20517;-41
2023/12/03 08:27:16;;;;;;;29.03;26.23;;;;;;;;;;5056054;28;20900;-43
2023/12/03 08:29:43;;;;;;;28.17;25.97;;;;;;;;;;5050016;28;21448;-41
2023/12/03 08:32:11;;;;;;;30.57;28.00;;;;;;;;;;5051740;28;20573;-44
2023/12/03 08:34:38;;;;;;;32.07;29.13;;;;;;;;;;4905235;28;20443;-42
2023/12/03 08:37:06;;;;;;;30.27;27.40;;;;;;;;;;4793286;28;20469;-42
2023/12/03 08:39:34;;;;;;;33.03;27.73;;;;;;;;;;4963720;28;20446;-45
2023/12/03 08:42:04;;;;;;;33.00;28.67;;;;;;;;;;4877214;28;22581;-42
2023/12/03 08:44:33;;;;;;;32.00;28.90;;;;;;;;;;5052211;28;20489;-41
2023/12/03 08:47:01;;;;;;;45.40;32.60;;;;;;;;;;5051974;28;20513;-42
2023/12/03 08:49:29;;;;;;;44.07;30.70;;;;;;;;;;5050610;28;20435;-47
2023/12/03 08:51:57;;;;;;;61.77;31.87;;;;;;;;;;5052021;28;20436;-41
2023/12/03 08:54:24;;;;;;;56.27;34.43;;;;;;;;;;5051722;28;20439;-45
2023/12/03 08:56:52;;;;;;;45.87;34.83;;;;;;;;;;5051434;28;20459;-40
2023/12/03 08:59:23;;;;;;;44.17;31.70;;;;;;;;;;5051768;28;20945;-41
2023/12/03 09:01:52;;;;;;;48.10;31.73;;;;;;;;;;5051207;28;20450;-41
2023/12/03 09:04:19;;;;;;;54.97;29.87;;;;;;;;;;5051045;28;20443;-41
2023/12/03 09:06:47;;;;;;;82.47;32.80;;;;;;;;;;5051356;28;20482;-42
2023/12/03 09:09:15;;;;;;;67.67;32.47;;;;;;;;;;5051450;28;20437;-42
2023/12/03 09:11:43;;;;;;;54.23;34.93;;;;;;;;;;5046072;28;20521;-39
2023/12/03 09:14:11;;;;;;;55.20;34.63;;;;;;;;;;5050787;28;20444;-42
2023/12/03 09:16:40;;;;;;;79.07;36.53;;;;;;;;;;5048788;28;20467;-40
2023/12/03 09:19:09;;;;;;;64.03;33.87;;;;;;;;;;5049662;28;20942;-41
2023/12/03 09:21:36;;;;;;;60.17;32.97;;;;;;;;;;5046621;28;20521;-41
2023/12/03 09:24:04;;;;;;;49.63;34.57;;;;;;;;;;5051448;28;20504;-42
2023/12/03 09:26:32;;;;;;;44.97;34.20;;;;;;;;;;5050806;28;20479;-42
2023/12/03 09:29:00;;;;;;;100.30;38.17;;;;;;;;;;5049039;28;20435;-41
2023/12/03 09:31:27;;;;;;;39.07;34.77;;;;;;;;;;5050588;28;20463;-41
2023/12/03 09:33:55;;;;;;;64.97;37.20;;;;;;;;;;5051221;28;20501;-40
2023/12/03 09:36:25;;;;;;;67.77;35.97;;;;;;;;;;4939691;28;21114;-41
2023/12/03 09:38:52;;;;;;;82.10;36.80;;;;;;;;;;4800382;28;21164;-41
2023/12/03 09:41:21;;;;;;;45.37;34.57;;;;;;;;;;4922553;28;20524;-42
2023/12/03 09:43:52;;;;;;;55.03;36.47;;;;;;;;;;4909121;28;20581;-40
2023/12/03 09:46:23;;;;;;;47.27;34.63;;;;;;;;;;4945467;28;20437;-41
2023/12/03 09:48:53;;;;;;;52.47;36.00;;;;;;;;;;5043377;28;20526;-41
2023/12/03 09:51:21;;;;;;;63.13;35.53;;;;;;;;;;5048740;28;20474;-41
2023/12/03 09:53:52;;;;;;;51.13;36.30;;;;;;;;;;5043577;28;20431;-41
2023/12/03 09:56:20;;;;;;;88.17;37.20;;;;;;;;;;5050162;28;20574;-41
2023/12/03 09:58:47;;;;;;;85.40;38.47;;;;;;;;;;5052197;28;20949;-41
2023/12/03 10:01:16;;;;;;;48.13;33.63;;;;;;;;;;5051068;28;20520;-41
2023/12/03 10:03:49;;;;;;;46.47;36.00;;;;;;;;;;5044543;28;20833;-41
2023/12/03 10:06:19;;;;;;;46.57;33.73;;;;;;;;;;5051028;28;20886;-42
2023/12/03 10:08:48;;;;;;;80.50;42.27;;;;;;;;;;5045436;28;20435;-41
2023/12/03 10:11:21;;;;;;;68.03;38.57;;;;;;;;;;5050073;28;20463;-41
2023/12/03 10:13:50;;;;;;;58.60;37.90;;;;;;;;;;5048953;28;20436;-41
2023/12/03 10:16:19;;;;;;;42.07;37.03;;;;;;;;;;5050278;28;20522;-41
2023/12/03 10:18:47;;;;;;;59.50;37.33;;;;;;;;;;5049572;28;20441;-41
2023/12/03 10:21:16;;;;;;;54.40;34.97;;;;;;;;;;5049143;28;20933;-41
2023/12/03 10:23:56;;;;;;;56.37;35.37;;;;;;;;;;5049366;28;20513;-41
2023/12/03 10:26:25;;;;;;;41.67;35.00;;;;;;;;;;5052710;28;20524;-41
2023/12/03 10:28:53;;;;;;;40.77;36.60;;;;;;;;;;5051535;28;20431;-41
2023/12/03 10:31:21;;;;;;;37.00;33.27;;;;;;;;;;5050698;28;20490;-44
2023/12/03 10:33:49;;;;;;;48.97;37.30;;;;;;;;;;5051193;28;20439;-43
2023/12/03 10:36:17;;;;;;;45.00;34.37;;;;;;;;;;5051642;28;20447;-42
2023/12/03 10:38:45;;;;;;;47.83;34.03;;;;;;;;;;5043404;28;20455;-41
2023/12/03 10:41:14;;;;;;;41.90;34.47;;;;;;;;;;5050463;28;20941;-41
2023/12/03 10:43:45;;;;;;;47.83;35.83;;;;;;;;;;5050208;28;20440;-40
2023/12/03 10:46:13;;;;;;;44.43;35.93;;;;;;;;;;5048199;28;20484;-43
2023/12/03 10:48:41;;;;;;;48.00;35.57;;;;;;;;;;5049505;28;20475;-42
2023/12/03 10:51:10;;;;;;;40.73;36.40;;;;;;;;;;5049970;28;20470;-42
2023/12/03 10:53:39;;;;;;;43.00;37.47;;;;;;;;;;5048677;28;20438;-41
2023/12/03 10:56:07;;;;;;;41.70;34.40;;;;;;;;;;5050979;28;20435;-41
2023/12/03 10:58:37;;;;;;;40.23;35.17;;;;;;;;;;5051012;28;20462;-44
2023/12/03 11:01:08;;;;;;;38.77;34.57;;;;;;;;;;5044983;28;20562;-41
2023/12/03 11:03:46;;;;;;;39.87;35.60;;;;;;;;;;5052620;28;20534;-41
2023/12/03 11:06:16;;;;;;;40.30;34.43;;;;;;;;;;5049890;28;20470;-41
2023/12/03 11:08:45;;;;;;;41.97;35.80;;;;;;;;;;5048038;28;20474;-44
2023/12/03 11:11:13;;;;;;;37.67;33.90;;;;;;;;;;5050474;28;20460;-43
2023/12/03 11:13:42;;;;;;;39.33;35.10;;;;;;;;;;5050847;28;20439;-43
2023/12/03 11:16:15;;;;;;;39.53;35.07;;;;;;;;;;5051005;28;20438;-44
2023/12/03 11:18:46;;;;;;;41.63;37.30;;;;;;;;;;5051084;28;20435;-42
2023/12/03 11:21:16;;;;;;;38.97;34.93;;;;;;;;;;5057280;28;20454;-41
2023/12/03 11:23:54;;;;;;;38.87;34.67;;;;;;;;;;5051318;28;20440;-41
2023/12/03 11:26:25;;;;;;;37.10;33.33;;;;;;;;;;5052026;28;20439;-42
2023/12/03 11:28:54;;;;;;;36.13;32.67;;;;;;;;;;5047567;28;20475;-41
2023/12/03 11:31:26;;;;;;;37.40;33.83;;;;;;;;;;5054375;28;20973;-41
2023/12/03 11:33:56;;;;;;;38.60;34.50;;;;;;;;;;5055000;28;20858;-42
2023/12/03 11:36:34;;;;;;;40.70;34.70;;;;;;;;;;5054414;28;20806;-41
2023/12/03 11:39:02;;;;;;;37.97;34.00;;;;;;;;;;5055057;28;20913;-41
2023/12/03 11:41:32;;;;;;;41.33;36.50;;;;;;;;;;5051317;28;20463;-44
2023/12/03 11:44:17;;;;;;;40.47;36.23;;;;;;;;;;5052327;28;20439;-42
2023/12/03 11:46:47;;;;;;;42.23;36.40;;;;;;;;;;5052972;28;20486;-40
2023/12/03 11:49:15;;;;;;;44.10;37.90;;;;;;;;;;5054910;28;20467;-40
2023/12/03 11:51:45;;;;;;;41.97;37.40;;;;;;;;;;5053893;28;20459;-40
2023/12/03 11:54:15;;;;;;;42.17;37.37;;;;;;;;;;5054693;28;20493;-41
2023/12/03 11:56:43;;;;;;;44.27;36.67;;;;;;;;;;5055843;28;20471;-40
2023/12/03 11:59:13;;;;;;;49.73;39.23;;;;;;;;;;5055613;28;20441;-45
2023/12/03 12:01:40;;;;;;;49.70;39.30;;;;;;;;;;5056516;28;20521;-40
2023/12/03 12:04:09;;;;;;;50.93;41.17;;;;;;;;;;5056882;28;20439;-43
2023/12/03 12:06:37;;;;;;;46.83;41.07;;;;;;;;;;5055139;28;20459;-41
2023/12/03 12:09:11;;;;;;;48.03;40.40;;;;;;;;;;5055957;28;20471;-41
2023/12/03 12:11:39;;;;;;;46.10;40.53;;;;;;;;;;5052920;28;20534;-44
2023/12/03 12:14:06;;;;;;;43.27;39.17;;;;;;;;;;5052933;28;20517;-44
2023/12/03 12:16:36;;;;;;;43.50;38.17;;;;;;;;;;5053032;28;20455;-41
2023/12/03 12:19:04;;;;;;;43.03;38.60;;;;;;;;;;5054131;28;21030;-41
2023/12/03 12:21:33;;;;;;;41.10;37.20;;;;;;;;;;5045886;28;20981;-41
2023/12/03 12:24:01;;;;;;;38.07;34.47;;;;;;;;;;5052104;28;20450;-43
2023/12/03 12:26:29;;;;;;;38.73;35.20;;;;;;;;;;5052959;28;20465;-41
2023/12/03 12:28:59;;;;;;;38.67;35.10;;;;;;;;;;5054303;28;20482;-41
2023/12/03 12:31:27;;;;;;;40.73;37.20;;;;;;;;;;5053367;28;20470;-44
2023/12/03 12:33:56;;;;;;;37.23;33.83;;;;;;;;;;5053559;28;20938;-44
2023/12/03 12:36:24;;;;;;;38.80;35.40;;;;;;;;;;5053924;28;20483;-45
2023/12/03 12:38:53;;;;;;;35.33;32.47;;;;;;;;;;5053213;28;20615;-42
2023/12/03 12:41:21;;;;;;;37.17;33.90;;;;;;;;;;5053377;28;20469;-43
2023/12/03 12:43:55;;;;;;;35.57;32.63;;;;;;;;;;5053620;28;20462;-41
2023/12/03 12:46:23;;;;;;;35.77;32.73;;;;;;;;;;5053216;28;20442;-40
2023/12/03 12:48:50;;;;;;;34.60;31.90;;;;;;;;;;5053794;28;20477;-42
2023/12/03 12:51:22;;;;;;;35.27;32.27;;;;;;;;;;5053180;28;20973;-42
2023/12/03 12:53:54;;;;;;;32.70;30.20;;;;;;;;;;5051754;28;20435;-41
2023/12/03 12:56:21;;;;;;;34.27;31.47;;;;;;;;;;5050946;28;20432;-43
2023/12/03 12:58:49;;;;;;;34.07;31.13;;;;;;;;;;5052185;28;20577;-40
2023/12/03 13:01:17;;;;;;;35.67;32.57;;;;;;;;;;5051518;28;20455;-41
2023/12/03 13:03:44;;;;;;;34.30;31.43;;;;;;;;;;5051620;28;20973;-41
2023/12/03 13:06:12;;;;;;;34.63;31.93;;;;;;;;;;5052712;28;20439;-41
2023/12/03 13:08:40;;;;;;;34.83;31.83;;;;;;;;;;5050099;28;20474;-40
2023/12/03 13:11:09;;;;;;;34.57;31.47;;;;;;;;;;5052809;28;20520;-41
2023/12/03 13:13:36;;;;;;;34.50;31.40;;;;;;;;;;5052927;28;20526;-42
2023/12/03 13:16:04;;;;;;;32.63;30.13;;;;;;;;;;5053144;28;20442;-42
2023/12/03 13:18:32;;;;;;;32.77;30.10;;;;;;;;;;5053251;28;20440;-40
2023/12/03 13:21:00;;;;;;;33.37;30.80;;;;;;;;;;5046006;28;20981;-42
2023/12/03 13:23:28;;;;;;;35.23;32.23;;;;;;;;;;5053124;28;20439;-41
2023/12/03 13:25:55;;;;;;;29.83;27.70;;;;;;;;;;5053147;28;20443;-41
2023/12/03 13:28:24;;;;;;;33.30;30.80;;;;;;;;;;5052852;28;21031;-41
2023/12/03 13:30:53;;;;;;;36.60;33.30;;;;;;;;;;5052125;28;20461;-41
2023/12/03 13:33:20;;;;;;;34.83;32.00;;;;;;;;;;5051935;28;20910;-44
2023/12/03 13:35:48;;;;;;;34.73;31.80;;;;;;;;;;5051875;28;20439;-41
2023/12/03 13:38:17;;;;;;;33.50;30.87;;;;;;;;;;5052915;28;20459;-42
2023/12/03 13:40:44;;;;;;;32.40;29.83;;;;;;;;;;5049384;28;20490;-41
2023/12/03 13:43:12;;;;;;;33.33;30.73;;;;;;;;;;5051413;28;20439;-45
2023/12/03 13:45:41;;;;;;;36.10;32.90;;;;;;;;;;5052287;28;20463;-43
2023/12/03 13:48:08;;;;;;;36.43;33.23;;;;;;;;;;5052675;28;20467;-41
2023/12/03 13:50:37;;;;;;;36.83;33.83;;;;;;;;;;5050844;28;20493;-40
2023/12/03 13:53:05;;;;;;;36.80;33.70;;;;;;;;;;5052744;28;20454;-41
2023/12/03 13:55:32;;;;;;;35.70;32.90;;;;;;;;;;5052591;28;20443;-43
2023/12/03 13:58:00;;;;;;;38.37;34.80;;;;;;;;;;5052572;28;20497;-41
2023/12/03 14:00:28;;;;;;;37.10;33.67;;;;;;;;;;5052309;28;20488;-43
2023/12/03 14:02:57;;;;;;;38.30;34.50;;;;;;;;;;5052279;28;20439;-40
2023/12/03 14:05:25;;;;;;;37.60;34.23;;;;;;;;;;5052692;28;20445;-41
2023/12/03 14:07:53;;;;;;;37.37;33.87;;;;;;;;;;5052116;28;20455;-41
2023/12/03 14:10:22;;;;;;;37.03;33.03;;;;;;;;;;5051847;28;20463;-42
2023/12/03 14:12:49;;;;;;;38.03;34.53;;;;;;;;;;5051048;28;20478;-43
2023/12/03 14:15:17;;;;;;;38.10;34.40;;;;;;;;;;5050582;28;20439;-41
2023/12/03 14:17:44;;;;;;;37.87;34.17;;;;;;;;;;5051707;28;20988;-41
2023/12/03 14:20:13;;;;;;;38.57;34.80;;;;;;;;;;5046468;28;20488;-41
2023/12/03 14:22:41;;;;;;;38.17;34.73;;;;;;;;;;5045799;28;20493;-42